sensor_id;sensor_type;location;lat;lon;timestamp;P1;durP1;ratioP1;P2;durP2;ratioP2
49464;SDS011;35358;49.342;8.802;2023-02-15T00:01:43;30.73;;;17.45;;
49464;SDS011;35358;49.342;8.802;2023-02-15T00:04:14;36.08;;;19.13;;
49464;SDS011;35358;49.342;8.802;2023-02-15T00:06:42;31.95;;;18.33;;
49464;SDS011;35358;49.342;8.802;2023-02-15T00:09:08;33.10;;;18.25;;
49464;SDS011;35358;49.342;8.802;2023-02-15T00:11:35;34.25;;;18.23;;
49464;SDS011;35358;49.342;8.802;2023-02-15T00:14:21;31.58;;;16.13;;
49464;SDS011;35358;49.342;8.802;2023-02-15T00:16:48;33.08;;;16.88;;
49464;SDS011;35358;49.342;8.802;2023-02-15T00:19:16;28.88;;;16.67;;
49464;SDS011;35358;49.342;8.802;2023-02-15T00:21:43;30.08;;;16.50;;
49464;SDS011;35358;49.342;8.802;2023-02-15T00:24:13;30.02;;;17.13;;
49464;SDS011;35358;49.342;8.802;2023-02-15T00:26:41;27.42;;;16.50;;
49464;SDS011;35358;49.342;8.802;2023-02-15T00:29:07;26.17;;;15.88;;
49464;SDS011;35358;49.342;8.802;2023-02-15T00:31:38;29.88;;;16.48;;
49464;SDS011;35358;49.342;8.802;2023-02-15T00:34:11;29.48;;;16.15;;
49464;SDS011;35358;49.342;8.802;2023-02-15T00:36:38;33.42;;;17.48;;
49464;SDS011;35358;49.342;8.802;2023-02-15T00:39:07;29.50;;;16.42;;
49464;SDS011;35358;49.342;8.802;2023-02-15T00:41:33;28.08;;;16.23;;
49464;SDS011;35358;49.342;8.802;2023-02-15T00:43:59;28.92;;;16.42;;
49464;SDS011;35358;49.342;8.802;2023-02-15T00:46:27;25.77;;;15.15;;
49464;SDS011;35358;49.342;8.802;2023-02-15T00:48:55;27.55;;;15.88;;
49464;SDS011;35358;49.342;8.802;2023-02-15T00:51:21;30.77;;;15.75;;
49464;SDS011;35358;49.342;8.802;2023-02-15T00:53:46;31.77;;;16.63;;
49464;SDS011;35358;49.342;8.802;2023-02-15T00:56:15;30.63;;;17.30;;
49464;SDS011;35358;49.342;8.802;2023-02-15T00:58:40;31.92;;;18.08;;
49464;SDS011;35358;49.342;8.802;2023-02-15T01:01:10;30.58;;;17.25;;
49464;SDS011;35358;49.342;8.802;2023-02-15T01:03:39;31.45;;;16.92;;
49464;SDS011;35358;49.342;8.802;2023-02-15T01:06:10;29.63;;;16.97;;
49464;SDS011;35358;49.342;8.802;2023-02-15T01:08:36;31.40;;;16.35;;
49464;SDS011;35358;49.342;8.802;2023-02-15T01:11:03;33.83;;;17.33;;
49464;SDS011;35358;49.342;8.802;2023-02-15T01:13:33;30.92;;;17.75;;
49464;SDS011;35358;49.342;8.802;2023-02-15T01:15:59;32.83;;;18.15;;
49464;SDS011;35358;49.342;8.802;2023-02-15T01:18:25;35.38;;;19.45;;
49464;SDS011;35358;49.342;8.802;2023-02-15T01:20:51;35.05;;;17.80;;
49464;SDS011;35358;49.342;8.802;2023-02-15T01:23:17;35.03;;;19.02;;
49464;SDS011;35358;49.342;8.802;2023-02-15T01:25:42;32.92;;;17.60;;
49464;SDS011;35358;49.342;8.802;2023-02-15T01:28:08;34.25;;;17.77;;
49464;SDS011;35358;49.342;8.802;2023-02-15T01:30:36;33.20;;;18.08;;
49464;SDS011;35358;49.342;8.802;2023-02-15T01:33:04;36.10;;;18.30;;
49464;SDS011;35358;49.342;8.802;2023-02-15T01:35:29;36.60;;;18.58;;
49464;SDS011;35358;49.342;8.802;2023-02-15T01:37:55;35.38;;;18.35;;
49464;SDS011;35358;49.342;8.802;2023-02-15T01:40:24;35.20;;;18.05;;
49464;SDS011;35358;49.342;8.802;2023-02-15T01:42:53;34.63;;;17.65;;
49464;SDS011;35358;49.342;8.802;2023-02-15T01:53:05;30.42;;;17.17;;
49464;SDS011;35358;49.342;8.802;2023-02-15T01:56:01;29.48;;;15.70;;
49464;SDS011;35358;49.342;8.802;2023-02-15T02:01:01;30.15;;;16.38;;
49464;SDS011;35358;49.342;8.802;2023-02-15T02:06:24;34.25;;;16.92;;
49464;SDS011;35358;49.342;8.802;2023-02-15T02:08:52;29.45;;;16.58;;
49464;SDS011;35358;49.342;8.802;2023-02-15T02:11:19;35.13;;;18.80;;
49464;SDS011;35358;49.342;8.802;2023-02-15T02:13:45;37.42;;;19.08;;
49464;SDS011;35358;49.342;8.802;2023-02-15T02:17:04;30.10;;;16.02;;
49464;SDS011;35358;49.342;8.802;2023-02-15T02:36:39;31.55;;;16.38;;
49464;SDS011;35358;49.342;8.802;2023-02-15T02:44:25;33.47;;;17.25;;
49464;SDS011;35358;49.342;8.802;2023-02-15T02:47:13;32.35;;;16.80;;
49464;SDS011;35358;49.342;8.802;2023-02-15T02:49:51;34.65;;;17.50;;
49464;SDS011;35358;49.342;8.802;2023-02-15T02:52:34;36.70;;;16.98;;
49464;SDS011;35358;49.342;8.802;2023-02-15T02:55:05;32.13;;;17.98;;
49464;SDS011;35358;49.342;8.802;2023-02-15T02:57:53;34.20;;;16.60;;
49464;SDS011;35358;49.342;8.802;2023-02-15T03:00:25;33.22;;;18.20;;
49464;SDS011;35358;49.342;8.802;2023-02-15T03:03:04;35.67;;;17.63;;
49464;SDS011;35358;49.342;8.802;2023-02-15T03:05:37;33.33;;;18.23;;
49464;SDS011;35358;49.342;8.802;2023-02-15T03:08:11;32.15;;;17.10;;
49464;SDS011;35358;49.342;8.802;2023-02-15T03:10:47;35.17;;;17.70;;
49464;SDS011;35358;49.342;8.802;2023-02-15T03:13:18;33.00;;;18.33;;
49464;SDS011;35358;49.342;8.802;2023-02-15T03:15:44;35.70;;;18.17;;
49464;SDS011;35358;49.342;8.802;2023-02-15T03:18:31;36.88;;;19.13;;
49464;SDS011;35358;49.342;8.802;2023-02-15T03:21:03;42.00;;;18.60;;
49464;SDS011;35358;49.342;8.802;2023-02-15T03:23:32;40.33;;;18.48;;
49464;SDS011;35358;49.342;8.802;2023-02-15T03:26:00;38.83;;;19.70;;
49464;SDS011;35358;49.342;8.802;2023-02-15T03:28:35;41.40;;;20.25;;
49464;SDS011;35358;49.342;8.802;2023-02-15T03:31:06;37.88;;;18.95;;
49464;SDS011;35358;49.342;8.802;2023-02-15T03:36:08;39.55;;;18.92;;
49464;SDS011;35358;49.342;8.802;2023-02-15T03:38:55;39.50;;;19.57;;
49464;SDS011;35358;49.342;8.802;2023-02-15T03:41:30;40.63;;;20.02;;
49464;SDS011;35358;49.342;8.802;2023-02-15T03:44:07;40.45;;;20.05;;
49464;SDS011;35358;49.342;8.802;2023-02-15T03:46:50;40.75;;;20.40;;
49464;SDS011;35358;49.342;8.802;2023-02-15T03:49:26;41.42;;;18.80;;
49464;SDS011;35358;49.342;8.802;2023-02-15T03:52:07;35.38;;;19.02;;
49464;SDS011;35358;49.342;8.802;2023-02-15T03:54:35;41.20;;;20.00;;
49464;SDS011;35358;49.342;8.802;2023-02-15T03:57:15;44.83;;;19.52;;
49464;SDS011;35358;49.342;8.802;2023-02-15T04:00:06;41.30;;;19.38;;
49464;SDS011;35358;49.342;8.802;2023-02-15T04:03:11;40.85;;;21.40;;
49464;SDS011;35358;49.342;8.802;2023-02-15T04:05:43;44.28;;;20.77;;
49464;SDS011;35358;49.342;8.802;2023-02-15T04:08:10;38.17;;;18.80;;
49464;SDS011;35358;49.342;8.802;2023-02-15T04:10:39;42.97;;;19.00;;
49464;SDS011;35358;49.342;8.802;2023-02-15T04:13:17;35.15;;;18.80;;
49464;SDS011;35358;49.342;8.802;2023-02-15T04:15:54;44.08;;;19.65;;
49464;SDS011;35358;49.342;8.802;2023-02-15T04:18:31;43.10;;;20.25;;
49464;SDS011;35358;49.342;8.802;2023-02-15T04:21:21;45.85;;;21.77;;
49464;SDS011;35358;49.342;8.802;2023-02-15T04:24:06;41.95;;;21.25;;
49464;SDS011;35358;49.342;8.802;2023-02-15T04:26:53;42.10;;;20.15;;
49464;SDS011;35358;49.342;8.802;2023-02-15T04:29:19;43.70;;;20.98;;
49464;SDS011;35358;49.342;8.802;2023-02-15T04:31:48;45.42;;;20.75;;
49464;SDS011;35358;49.342;8.802;2023-02-15T04:34:16;39.25;;;20.02;;
49464;SDS011;35358;49.342;8.802;2023-02-15T04:36:42;43.63;;;21.60;;
49464;SDS011;35358;49.342;8.802;2023-02-15T04:39:08;48.30;;;23.73;;
49464;SDS011;35358;49.342;8.802;2023-02-15T04:41:37;48.22;;;22.65;;
49464;SDS011;35358;49.342;8.802;2023-02-15T04:44:05;45.97;;;23.00;;
49464;SDS011;35358;49.342;8.802;2023-02-15T04:46:30;44.83;;;22.08;;
49464;SDS011;35358;49.342;8.802;2023-02-15T04:48:56;42.13;;;19.83;;
49464;SDS011;35358;49.342;8.802;2023-02-15T04:51:22;37.85;;;19.67;;
49464;SDS011;35358;49.342;8.802;2023-02-15T04:53:50;40.53;;;20.00;;
49464;SDS011;35358;49.342;8.802;2023-02-15T04:56:21;41.08;;;19.80;;
49464;SDS011;35358;49.342;8.802;2023-02-15T04:58:47;43.97;;;22.10;;
49464;SDS011;35358;49.342;8.802;2023-02-15T05:01:13;45.00;;;23.45;;
49464;SDS011;35358;49.342;8.802;2023-02-15T05:03:39;48.83;;;23.17;;
49464;SDS011;35358;49.342;8.802;2023-02-15T05:06:07;47.72;;;23.80;;
49464;SDS011;35358;49.342;8.802;2023-02-15T05:08:35;46.80;;;24.10;;
49464;SDS011;35358;49.342;8.802;2023-02-15T05:11:01;43.75;;;21.95;;
49464;SDS011;35358;49.342;8.802;2023-02-15T05:13:26;41.80;;;22.08;;
49464;SDS011;35358;49.342;8.802;2023-02-15T05:15:52;40.60;;;21.02;;
49464;SDS011;35358;49.342;8.802;2023-02-15T05:18:20;39.67;;;21.00;;
49464;SDS011;35358;49.342;8.802;2023-02-15T05:20:46;40.55;;;20.75;;
49464;SDS011;35358;49.342;8.802;2023-02-15T05:23:17;41.85;;;21.83;;
49464;SDS011;35358;49.342;8.802;2023-02-15T05:25:46;43.15;;;22.38;;
49464;SDS011;35358;49.342;8.802;2023-02-15T05:28:32;38.80;;;20.55;;
49464;SDS011;35358;49.342;8.802;2023-02-15T05:33:31;40.72;;;22.02;;
49464;SDS011;35358;49.342;8.802;2023-02-15T05:35:57;41.60;;;21.75;;
49464;SDS011;35358;49.342;8.802;2023-02-15T05:38:23;39.17;;;21.45;;
49464;SDS011;35358;49.342;8.802;2023-02-15T05:40:50;43.35;;;21.88;;
49464;SDS011;35358;49.342;8.802;2023-02-15T05:43:16;39.85;;;20.80;;
49464;SDS011;35358;49.342;8.802;2023-02-15T05:45:44;39.95;;;21.05;;
49464;SDS011;35358;49.342;8.802;2023-02-15T05:48:15;34.95;;;20.02;;
49464;SDS011;35358;49.342;8.802;2023-02-15T05:50:43;39.78;;;21.15;;
49464;SDS011;35358;49.342;8.802;2023-02-15T05:53:09;42.78;;;21.63;;
49464;SDS011;35358;49.342;8.802;2023-02-15T05:55:38;44.35;;;23.08;;
49464;SDS011;35358;49.342;8.802;2023-02-15T05:58:05;38.63;;;21.08;;
49464;SDS011;35358;49.342;8.802;2023-02-15T06:00:32;37.28;;;19.98;;
49464;SDS011;35358;49.342;8.802;2023-02-15T06:03:01;38.63;;;20.15;;
49464;SDS011;35358;49.342;8.802;2023-02-15T06:05:29;35.67;;;20.05;;
49464;SDS011;35358;49.342;8.802;2023-02-15T06:07:54;33.85;;;19.45;;
49464;SDS011;35358;49.342;8.802;2023-02-15T06:10:20;42.83;;;20.33;;
49464;SDS011;35358;49.342;8.802;2023-02-15T06:12:45;40.72;;;20.35;;
49464;SDS011;35358;49.342;8.802;2023-02-15T06:15:11;36.53;;;19.08;;
49464;SDS011;35358;49.342;8.802;2023-02-15T06:17:42;34.30;;;18.85;;
49464;SDS011;35358;49.342;8.802;2023-02-15T06:20:08;35.75;;;19.08;;
49464;SDS011;35358;49.342;8.802;2023-02-15T06:22:34;36.13;;;20.10;;
49464;SDS011;35358;49.342;8.802;2023-02-15T06:25:00;33.92;;;19.10;;
49464;SDS011;35358;49.342;8.802;2023-02-15T06:27:26;40.05;;;19.20;;
49464;SDS011;35358;49.342;8.802;2023-02-15T06:29:54;44.40;;;21.25;;
49464;SDS011;35358;49.342;8.802;2023-02-15T06:32:20;34.55;;;19.88;;
49464;SDS011;35358;49.342;8.802;2023-02-15T06:34:48;39.65;;;20.90;;
49464;SDS011;35358;49.342;8.802;2023-02-15T06:37:13;51.72;;;26.15;;
49464;SDS011;35358;49.342;8.802;2023-02-15T06:39:39;64.22;;;34.28;;
49464;SDS011;35358;49.342;8.802;2023-02-15T06:42:07;52.15;;;27.65;;
49464;SDS011;35358;49.342;8.802;2023-02-15T06:44:35;42.85;;;22.88;;
49464;SDS011;35358;49.342;8.802;2023-02-15T06:47:01;40.97;;;22.15;;
49464;SDS011;35358;49.342;8.802;2023-02-15T06:49:26;50.53;;;21.80;;
49464;SDS011;35358;49.342;8.802;2023-02-15T06:51:52;33.58;;;19.48;;
49464;SDS011;35358;49.342;8.802;2023-02-15T06:54:17;35.88;;;20.05;;
49464;SDS011;35358;49.342;8.802;2023-02-15T06:56:43;35.88;;;19.50;;
49464;SDS011;35358;49.342;8.802;2023-02-15T06:59:09;40.08;;;20.70;;
49464;SDS011;35358;49.342;8.802;2023-02-15T07:01:37;37.10;;;20.45;;
49464;SDS011;35358;49.342;8.802;2023-02-15T07:04:03;44.35;;;22.60;;
49464;SDS011;35358;49.342;8.802;2023-02-15T07:06:34;37.17;;;19.90;;
49464;SDS011;35358;49.342;8.802;2023-02-15T07:09:00;36.85;;;19.67;;
49464;SDS011;35358;49.342;8.802;2023-02-15T07:11:26;32.40;;;19.38;;
49464;SDS011;35358;49.342;8.802;2023-02-15T07:14:10;34.97;;;18.73;;
49464;SDS011;35358;49.342;8.802;2023-02-15T07:16:36;33.35;;;19.58;;
49464;SDS011;35358;49.342;8.802;2023-02-15T07:19:02;33.08;;;18.45;;
49464;SDS011;35358;49.342;8.802;2023-02-15T07:21:27;37.03;;;19.42;;
49464;SDS011;35358;49.342;8.802;2023-02-15T07:23:56;33.97;;;18.70;;
49464;SDS011;35358;49.342;8.802;2023-02-15T07:26:22;35.70;;;19.35;;
49464;SDS011;35358;49.342;8.802;2023-02-15T07:28:48;34.88;;;19.63;;
49464;SDS011;35358;49.342;8.802;2023-02-15T07:31:16;46.40;;;19.80;;
49464;SDS011;35358;49.342;8.802;2023-02-15T07:33:45;34.05;;;19.13;;
49464;SDS011;35358;49.342;8.802;2023-02-15T07:36:10;40.78;;;21.13;;
49464;SDS011;35358;49.342;8.802;2023-02-15T07:38:37;53.85;;;20.33;;
49464;SDS011;35358;49.342;8.802;2023-02-15T07:41:07;41.72;;;20.85;;
49464;SDS011;35358;49.342;8.802;2023-02-15T07:43:34;38.83;;;21.05;;
49464;SDS011;35358;49.342;8.802;2023-02-15T07:46:02;38.28;;;20.15;;
49464;SDS011;35358;49.342;8.802;2023-02-15T07:48:30;34.25;;;19.95;;
49464;SDS011;35358;49.342;8.802;2023-02-15T07:50:59;36.50;;;20.08;;
49464;SDS011;35358;49.342;8.802;2023-02-15T07:53:25;39.63;;;20.70;;
49464;SDS011;35358;49.342;8.802;2023-02-15T07:55:51;42.47;;;22.15;;
49464;SDS011;35358;49.342;8.802;2023-02-15T07:58:19;36.67;;;20.03;;
49464;SDS011;35358;49.342;8.802;2023-02-15T08:00:47;36.38;;;19.98;;
49464;SDS011;35358;49.342;8.802;2023-02-15T08:03:22;40.58;;;21.77;;
49464;SDS011;35358;49.342;8.802;2023-02-15T08:05:55;38.17;;;21.52;;
49464;SDS011;35358;49.342;8.802;2023-02-15T08:08:23;33.22;;;18.48;;
49464;SDS011;35358;49.342;8.802;2023-02-15T08:11:04;35.78;;;20.65;;
49464;SDS011;35358;49.342;8.802;2023-02-15T08:13:50;36.35;;;21.05;;
49464;SDS011;35358;49.342;8.802;2023-02-15T08:18:59;36.92;;;20.67;;
49464;SDS011;35358;49.342;8.802;2023-02-15T08:21:27;35.47;;;19.52;;
49464;SDS011;35358;49.342;8.802;2023-02-15T08:23:54;39.55;;;21.85;;
49464;SDS011;35358;49.342;8.802;2023-02-15T08:26:22;33.38;;;19.13;;
49464;SDS011;35358;49.342;8.802;2023-02-15T08:28:48;34.50;;;19.80;;
49464;SDS011;35358;49.342;8.802;2023-02-15T08:31:17;36.45;;;18.92;;
49464;SDS011;35358;49.342;8.802;2023-02-15T08:33:44;32.63;;;18.10;;
49464;SDS011;35358;49.342;8.802;2023-02-15T08:36:14;32.65;;;19.02;;
49464;SDS011;35358;49.342;8.802;2023-02-15T08:38:44;38.17;;;20.08;;
49464;SDS011;35358;49.342;8.802;2023-02-15T08:43:44;50.00;;;19.92;;
49464;SDS011;35358;49.342;8.802;2023-02-15T08:46:13;42.00;;;22.70;;
49464;SDS011;35358;49.342;8.802;2023-02-15T08:48:40;43.15;;;20.75;;
49464;SDS011;35358;49.342;8.802;2023-02-15T08:51:07;43.67;;;22.42;;
49464;SDS011;35358;49.342;8.802;2023-02-15T08:53:37;38.10;;;21.25;;
49464;SDS011;35358;49.342;8.802;2023-02-15T08:56:04;38.93;;;22.47;;
49464;SDS011;35358;49.342;8.802;2023-02-15T08:58:30;41.55;;;22.02;;
49464;SDS011;35358;49.342;8.802;2023-02-15T09:00:56;35.70;;;20.15;;
49464;SDS011;35358;49.342;8.802;2023-02-15T09:03:26;32.63;;;18.50;;
49464;SDS011;35358;49.342;8.802;2023-02-15T09:05:56;33.58;;;19.52;;
49464;SDS011;35358;49.342;8.802;2023-02-15T09:08:23;30.83;;;19.05;;
49464;SDS011;35358;49.342;8.802;2023-02-15T09:10:51;32.67;;;19.58;;
49464;SDS011;35358;49.342;8.802;2023-02-15T09:13:16;29.30;;;17.75;;
49464;SDS011;35358;49.342;8.802;2023-02-15T09:15:42;30.83;;;18.42;;
49464;SDS011;35358;49.342;8.802;2023-02-15T09:18:09;33.40;;;19.00;;
49464;SDS011;35358;49.342;8.802;2023-02-15T09:20:44;30.33;;;18.73;;
49464;SDS011;35358;49.342;8.802;2023-02-15T09:23:09;30.73;;;18.15;;
49464;SDS011;35358;49.342;8.802;2023-02-15T09:25:39;32.22;;;20.17;;
49464;SDS011;35358;49.342;8.802;2023-02-15T09:28:04;33.92;;;18.33;;
49464;SDS011;35358;49.342;8.802;2023-02-15T09:30:33;31.92;;;18.58;;
49464;SDS011;35358;49.342;8.802;2023-02-15T09:32:58;26.13;;;16.05;;
49464;SDS011;35358;49.342;8.802;2023-02-15T09:35:24;32.03;;;17.98;;
49464;SDS011;35358;49.342;8.802;2023-02-15T09:37:49;31.33;;;18.33;;
49464;SDS011;35358;49.342;8.802;2023-02-15T09:40:15;28.13;;;18.83;;
49464;SDS011;35358;49.342;8.802;2023-02-15T09:45:33;32.72;;;19.67;;
49464;SDS011;35358;49.342;8.802;2023-02-15T09:51:35;30.70;;;16.67;;
49464;SDS011;35358;49.342;8.802;2023-02-15T09:56:42;32.55;;;19.02;;
49464;SDS011;35358;49.342;8.802;2023-02-15T09:59:26;31.77;;;19.08;;
49464;SDS011;35358;49.342;8.802;2023-02-15T10:02:33;30.50;;;17.92;;
49464;SDS011;35358;49.342;8.802;2023-02-15T10:05:29;27.20;;;17.08;;
49464;SDS011;35358;49.342;8.802;2023-02-15T10:13:18;32.22;;;19.65;;
49464;SDS011;35358;49.342;8.802;2023-02-15T10:19:00;32.25;;;18.55;;
49464;SDS011;35358;49.342;8.802;2023-02-15T10:21:42;28.60;;;18.08;;
49464;SDS011;35358;49.342;8.802;2023-02-15T10:27:12;29.65;;;18.35;;
49464;SDS011;35358;49.342;8.802;2023-02-15T10:32:40;29.48;;;18.58;;
49464;SDS011;35358;49.342;8.802;2023-02-15T10:35:20;29.58;;;16.90;;
49464;SDS011;35358;49.342;8.802;2023-02-15T10:40:33;31.60;;;18.95;;
49464;SDS011;35358;49.342;8.802;2023-02-15T10:46:09;27.63;;;17.33;;
49464;SDS011;35358;49.342;8.802;2023-02-15T10:51:30;24.50;;;15.63;;
49464;SDS011;35358;49.342;8.802;2023-02-15T11:07:13;24.02;;;15.73;;
49464;SDS011;35358;49.342;8.802;2023-02-15T11:09:53;29.20;;;18.30;;
49464;SDS011;35358;49.342;8.802;2023-02-15T11:12:46;27.10;;;17.52;;
49464;SDS011;35358;49.342;8.802;2023-02-15T11:17:55;29.50;;;18.35;;
49464;SDS011;35358;49.342;8.802;2023-02-15T11:23:32;28.83;;;19.25;;
49464;SDS011;35358;49.342;8.802;2023-02-15T11:26:02;27.13;;;17.10;;
49464;SDS011;35358;49.342;8.802;2023-02-15T11:28:55;28.23;;;17.20;;
49464;SDS011;35358;49.342;8.802;2023-02-15T11:31:25;37.92;;;25.02;;
49464;SDS011;35358;49.342;8.802;2023-02-15T11:33:58;27.55;;;17.65;;
49464;SDS011;35358;49.342;8.802;2023-02-15T11:36:31;26.33;;;17.05;;
49464;SDS011;35358;49.342;8.802;2023-02-15T11:39:02;27.02;;;17.35;;
49464;SDS011;35358;49.342;8.802;2023-02-15T11:41:37;29.58;;;18.17;;
49464;SDS011;35358;49.342;8.802;2023-02-15T11:46:37;30.98;;;16.80;;
49464;SDS011;35358;49.342;8.802;2023-02-15T11:49:07;26.40;;;16.90;;
49464;SDS011;35358;49.342;8.802;2023-02-15T11:51:43;25.67;;;16.80;;
49464;SDS011;35358;49.342;8.802;2023-02-15T11:54:09;29.75;;;17.92;;
49464;SDS011;35358;49.342;8.802;2023-02-15T11:56:39;28.67;;;18.00;;
49464;SDS011;35358;49.342;8.802;2023-02-15T11:59:11;23.83;;;15.50;;
49464;SDS011;35358;49.342;8.802;2023-02-15T12:01:46;27.15;;;17.25;;
49464;SDS011;35358;49.342;8.802;2023-02-15T12:07:12;29.77;;;18.75;;
49464;SDS011;35358;49.342;8.802;2023-02-15T12:12:30;28.50;;;18.95;;
49464;SDS011;35358;49.342;8.802;2023-02-15T12:15:00;26.88;;;17.38;;
49464;SDS011;35358;49.342;8.802;2023-02-15T12:17:29;27.73;;;18.23;;
49464;SDS011;35358;49.342;8.802;2023-02-15T12:20:06;29.70;;;17.90;;
49464;SDS011;35358;49.342;8.802;2023-02-15T12:22:59;29.25;;;19.02;;
49464;SDS011;35358;49.342;8.802;2023-02-15T12:27:55;27.75;;;19.05;;
49464;SDS011;35358;49.342;8.802;2023-02-15T12:30:29;30.35;;;18.85;;
49464;SDS011;35358;49.342;8.802;2023-02-15T12:35:46;32.75;;;20.20;;
49464;SDS011;35358;49.342;8.802;2023-02-15T12:40:40;28.85;;;18.95;;
49464;SDS011;35358;49.342;8.802;2023-02-15T12:43:17;32.90;;;20.02;;
49464;SDS011;35358;49.342;8.802;2023-02-15T12:48:39;27.15;;;17.38;;
49464;SDS011;35358;49.342;8.802;2023-02-15T12:51:08;29.83;;;18.92;;
49464;SDS011;35358;49.342;8.802;2023-02-15T12:53:40;29.75;;;18.92;;
49464;SDS011;35358;49.342;8.802;2023-02-15T12:56:07;31.48;;;20.02;;
49464;SDS011;35358;49.342;8.802;2023-02-15T12:58:40;30.75;;;19.58;;
49464;SDS011;35358;49.342;8.802;2023-02-15T13:06:26;26.42;;;18.17;;
49464;SDS011;35358;49.342;8.802;2023-02-15T13:08:54;25.77;;;18.00;;
49464;SDS011;35358;49.342;8.802;2023-02-15T13:11:31;28.67;;;19.30;;
49464;SDS011;35358;49.342;8.802;2023-02-15T13:14:00;29.08;;;19.50;;
49464;SDS011;35358;49.342;8.802;2023-02-15T13:18:56;26.70;;;18.92;;
49464;SDS011;35358;49.342;8.802;2023-02-15T13:21:26;26.10;;;17.83;;
49464;SDS011;35358;49.342;8.802;2023-02-15T13:24:04;28.33;;;19.30;;
49464;SDS011;35358;49.342;8.802;2023-02-15T13:26:31;29.17;;;19.85;;
49464;SDS011;35358;49.342;8.802;2023-02-15T13:29:01;26.20;;;17.20;;
49464;SDS011;35358;49.342;8.802;2023-02-15T13:31:50;27.63;;;17.98;;
49464;SDS011;35358;49.342;8.802;2023-02-15T13:34:36;26.05;;;18.30;;
49464;SDS011;35358;49.342;8.802;2023-02-15T13:42:46;26.58;;;17.48;;
49464;SDS011;35358;49.342;8.802;2023-02-15T14:04:48;25.27;;;17.17;;
49464;SDS011;35358;49.342;8.802;2023-02-15T14:07:30;25.17;;;16.35;;
49464;SDS011;35358;49.342;8.802;2023-02-15T14:15:38;33.53;;;22.73;;
49464;SDS011;35358;49.342;8.802;2023-02-15T14:18:28;24.52;;;16.90;;
49464;SDS011;35358;49.342;8.802;2023-02-15T14:21:25;22.35;;;16.38;;
49464;SDS011;35358;49.342;8.802;2023-02-15T14:29:51;20.80;;;15.50;;
49464;SDS011;35358;49.342;8.802;2023-02-15T14:35:23;21.75;;;15.60;;
49464;SDS011;35358;49.342;8.802;2023-02-15T14:49:15;23.65;;;15.45;;
49464;SDS011;35358;49.342;8.802;2023-02-15T15:04:34;23.83;;;16.63;;
49464;SDS011;35358;49.342;8.802;2023-02-15T15:07:07;24.73;;;17.15;;
49464;SDS011;35358;49.342;8.802;2023-02-15T15:09:39;22.02;;;15.88;;
49464;SDS011;35358;49.342;8.802;2023-02-15T15:14:52;23.52;;;17.30;;
49464;SDS011;35358;49.342;8.802;2023-02-15T15:19:58;23.33;;;16.92;;
49464;SDS011;35358;49.342;8.802;2023-02-15T15:22:30;21.35;;;16.02;;
49464;SDS011;35358;49.342;8.802;2023-02-15T15:51:49;23.20;;;16.55;;
49464;SDS011;35358;49.342;8.802;2023-02-15T15:54:17;23.10;;;16.13;;
49464;SDS011;35358;49.342;8.802;2023-02-15T15:56:51;23.02;;;16.33;;
49464;SDS011;35358;49.342;8.802;2023-02-15T15:59:21;21.23;;;15.82;;
49464;SDS011;35358;49.342;8.802;2023-02-15T16:01:52;21.85;;;15.75;;
49464;SDS011;35358;49.342;8.802;2023-02-15T16:04:25;23.27;;;16.38;;
49464;SDS011;35358;49.342;8.802;2023-02-15T16:06:54;24.77;;;16.70;;
49464;SDS011;35358;49.342;8.802;2023-02-15T16:11:53;21.52;;;15.98;;
49464;SDS011;35358;49.342;8.802;2023-02-15T16:14:37;25.30;;;17.98;;
49464;SDS011;35358;49.342;8.802;2023-02-15T16:17:07;25.90;;;16.42;;
49464;SDS011;35358;49.342;8.802;2023-02-15T16:19:40;26.20;;;16.50;;
49464;SDS011;35358;49.342;8.802;2023-02-15T16:22:11;25.20;;;16.58;;
49464;SDS011;35358;49.342;8.802;2023-02-15T16:30:13;24.42;;;17.33;;
49464;SDS011;35358;49.342;8.802;2023-02-15T16:33:08;23.73;;;15.90;;
49464;SDS011;35358;49.342;8.802;2023-02-15T16:35:36;30.42;;;17.70;;
49464;SDS011;35358;49.342;8.802;2023-02-15T16:38:08;25.60;;;16.88;;
49464;SDS011;35358;49.342;8.802;2023-02-15T16:43:06;23.63;;;17.38;;
49464;SDS011;35358;49.342;8.802;2023-02-15T16:45:40;24.50;;;17.23;;
49464;SDS011;35358;49.342;8.802;2023-02-15T16:48:07;24.65;;;18.00;;
49464;SDS011;35358;49.342;8.802;2023-02-15T16:50:46;26.77;;;18.40;;
49464;SDS011;35358;49.342;8.802;2023-02-15T16:53:23;30.92;;;17.98;;
49464;SDS011;35358;49.342;8.802;2023-02-15T16:55:54;27.70;;;17.75;;
49464;SDS011;35358;49.342;8.802;2023-02-15T16:58:37;24.73;;;17.05;;
49464;SDS011;35358;49.342;8.802;2023-02-15T17:01:09;27.98;;;17.30;;
49464;SDS011;35358;49.342;8.802;2023-02-15T17:03:37;26.23;;;17.35;;
49464;SDS011;35358;49.342;8.802;2023-02-15T17:06:04;24.02;;;16.52;;
49464;SDS011;35358;49.342;8.802;2023-02-15T17:08:47;24.17;;;16.98;;
49464;SDS011;35358;49.342;8.802;2023-02-15T17:11:17;25.02;;;16.88;;
49464;SDS011;35358;49.342;8.802;2023-02-15T17:16:50;26.48;;;17.63;;
49464;SDS011;35358;49.342;8.802;2023-02-15T17:19:26;26.58;;;18.75;;
49464;SDS011;35358;49.342;8.802;2023-02-15T17:22:00;28.42;;;18.60;;
49464;SDS011;35358;49.342;8.802;2023-02-15T17:24:38;26.58;;;17.73;;
49464;SDS011;35358;49.342;8.802;2023-02-15T17:27:14;25.48;;;16.67;;
49464;SDS011;35358;49.342;8.802;2023-02-15T17:29:55;28.42;;;19.48;;
49464;SDS011;35358;49.342;8.802;2023-02-15T17:32:24;31.00;;;20.02;;
49464;SDS011;35358;49.342;8.802;2023-02-15T17:37:31;31.42;;;20.42;;
49464;SDS011;35358;49.342;8.802;2023-02-15T17:42:50;34.80;;;23.17;;
49464;SDS011;35358;49.342;8.802;2023-02-15T17:45:16;33.35;;;21.95;;
49464;SDS011;35358;49.342;8.802;2023-02-15T17:47:46;44.63;;;26.47;;
49464;SDS011;35358;49.342;8.802;2023-02-15T17:50:18;44.60;;;26.17;;
49464;SDS011;35358;49.342;8.802;2023-02-15T17:52:49;39.45;;;24.08;;
49464;SDS011;35358;49.342;8.802;2023-02-15T17:55:17;47.65;;;28.95;;
49464;SDS011;35358;49.342;8.802;2023-02-15T17:58:01;40.67;;;27.10;;
49464;SDS011;35358;49.342;8.802;2023-02-15T18:00:29;36.60;;;24.05;;
49464;SDS011;35358;49.342;8.802;2023-02-15T18:03:17;37.78;;;24.50;;
49464;SDS011;35358;49.342;8.802;2023-02-15T18:06:01;37.85;;;23.60;;
49464;SDS011;35358;49.342;8.802;2023-02-15T18:08:45;34.28;;;23.25;;
49464;SDS011;35358;49.342;8.802;2023-02-15T18:11:29;38.08;;;24.27;;
49464;SDS011;35358;49.342;8.802;2023-02-15T18:14:04;37.08;;;23.88;;
49464;SDS011;35358;49.342;8.802;2023-02-15T18:16:38;35.25;;;23.45;;
49464;SDS011;35358;49.342;8.802;2023-02-15T18:21:46;34.03;;;23.40;;
49464;SDS011;35358;49.342;8.802;2023-02-15T18:24:13;35.20;;;21.80;;
49464;SDS011;35358;49.342;8.802;2023-02-15T18:26:49;33.55;;;20.33;;
49464;SDS011;35358;49.342;8.802;2023-02-15T18:29:16;36.25;;;24.30;;
49464;SDS011;35358;49.342;8.802;2023-02-15T18:31:42;35.70;;;23.38;;
49464;SDS011;35358;49.342;8.802;2023-02-15T18:34:23;40.63;;;27.00;;
49464;SDS011;35358;49.342;8.802;2023-02-15T18:36:57;37.40;;;24.85;;
49464;SDS011;35358;49.342;8.802;2023-02-15T18:41:52;33.47;;;21.10;;
49464;SDS011;35358;49.342;8.802;2023-02-15T18:44:25;29.60;;;20.77;;
49464;SDS011;35358;49.342;8.802;2023-02-15T18:46:53;31.88;;;19.85;;
49464;SDS011;35358;49.342;8.802;2023-02-15T18:49:18;32.90;;;19.88;;